createdAt,value
2023-01-29T00:03:47.059Z,53.50
2023-01-29T00:08:49.979Z,54.42
2023-01-29T00:13:54.545Z,53.65
2023-01-29T00:18:57.026Z,53.70
2023-01-29T00:24:00.264Z,52.45
2023-01-29T00:29:04.035Z,54.64
2023-01-29T00:34:06.455Z,54.60
2023-01-29T00:39:11.156Z,54.47
2023-01-29T00:44:33.233Z,54.00
2023-01-29T00:49:36.000Z,55.08
2023-01-29T00:54:38.903Z,54.11
2023-01-29T00:59:41.453Z,54.51
2023-01-29T01:04:44.521Z,54.50
2023-01-29T01:10:07.405Z,54.40
2023-01-29T01:15:10.997Z,54.80
2023-01-29T01:20:14.227Z,54.96
2023-01-29T01:25:17.895Z,54.91
2023-01-29T01:30:21.442Z,54.72
2023-01-29T01:35:23.833Z,55.15
2023-01-29T01:40:26.613Z,55.47
2023-01-29T01:45:37.116Z,54.90
2023-01-29T01:50:50.162Z,55.21
2023-01-29T01:55:59.805Z,55.47
2023-01-29T02:01:06.279Z,54.72
2023-01-29T02:06:29.165Z,56.13
2023-01-29T02:11:32.692Z,55.08
2023-01-29T02:16:36.732Z,55.19
2023-01-29T02:21:45.868Z,55.59
2023-01-29T02:26:58.713Z,54.61
2023-01-29T02:32:11.154Z,56.54
2023-01-29T02:37:15.351Z,55.35
2023-01-29T02:42:37.286Z,55.47
2023-01-29T02:47:48.450Z,54.85
2023-01-29T02:53:15.756Z,56.60
2023-01-29T02:58:31.292Z,55.17
2023-01-29T03:03:40.935Z,55.92
2023-01-29T03:08:50.314Z,54.83
2023-01-29T03:14:13.605Z,56.28
2023-01-29T03:19:21.180Z,55.82
2023-01-29T03:24:48.121Z,56.06
2023-01-29T03:30:12.845Z,55.86
2023-01-29T03:35:37.730Z,56.32
2023-01-29T03:40:49.766Z,55.54
2023-01-29T03:46:05.330Z,55.88
2023-01-29T03:51:23.590Z,54.76
2023-01-29T03:56:55.477Z,55.34
2023-01-29T04:02:03.394Z,55.48
2023-01-29T04:07:24.628Z,55.60
2023-01-29T04:12:46.234Z,54.86
2023-01-29T04:17:53.094Z,54.83
2023-01-29T04:23:02.527Z,54.23
2023-01-29T04:28:20.025Z,55.82
2023-01-29T04:33:56.994Z,54.91
2023-01-29T04:39:18.679Z,55.41
2023-01-29T04:44:38.808Z,55.36
2023-01-29T04:50:16.155Z,55.99
2023-01-29T04:55:28.953Z,54.69
2023-01-29T05:00:37.709Z,54.44
2023-01-29T05:05:43.278Z,55.42
2023-01-29T05:10:48.494Z,55.58
2023-01-29T05:15:53.909Z,55.24
2023-01-29T05:21:16.633Z,56.17
2023-01-29T05:26:41.581Z,55.47
2023-01-29T05:31:45.795Z,54.81
2023-01-29T05:36:48.587Z,54.97
2023-01-29T05:41:52.590Z,54.95
2023-01-29T05:46:55.513Z,55.04
2023-01-29T05:51:58.411Z,54.62
2023-01-29T05:57:01.322Z,53.73
2023-01-29T06:02:03.756Z,54.02
2023-01-29T06:07:06.096Z,54.09
2023-01-29T06:12:09.587Z,53.33
2023-01-29T06:17:11.923Z,53.85
2023-01-29T06:22:14.687Z,54.17
2023-01-29T06:27:17.818Z,54.98
2023-01-29T06:32:20.768Z,54.72
2023-01-29T06:37:24.478Z,54.40
2023-01-29T06:42:28.247Z,55.79
2023-01-29T06:47:30.716Z,54.18
2023-01-29T06:52:33.615Z,53.76
2023-01-29T06:57:35.921Z,54.13
2023-01-29T07:02:38.858Z,53.75
2023-01-29T07:07:41.671Z,53.45
2023-01-29T07:12:44.448Z,52.37
2023-01-29T07:18:01.634Z,52.39
2023-01-29T07:23:05.223Z,52.43
2023-01-29T07:28:07.983Z,51.65
2023-01-29T07:33:12.081Z,50.77
2023-01-29T07:38:14.428Z,51.49
2023-01-29T07:43:17.497Z,49.67
2023-01-29T07:48:20.580Z,49.71
2023-01-29T07:53:23.608Z,49.08
2023-01-29T07:58:26.494Z,48.82
2023-01-29T08:03:28.863Z,48.30
2023-01-29T08:08:31.116Z,48.36
2023-01-29T08:13:34.474Z,46.78
2023-01-29T08:18:37.970Z,46.75
2023-01-29T08:23:40.625Z,47.06
2023-01-29T08:28:43.448Z,47.25
2023-01-29T08:33:47.060Z,46.68
2023-01-29T08:38:49.619Z,46.97
2023-01-29T08:43:52.159Z,47.28
2023-01-29T08:48:55.572Z,46.55
2023-01-29T08:53:57.848Z,46.46
2023-01-29T08:59:00.599Z,46.82
2023-01-29T09:04:03.023Z,46.90
2023-01-29T09:09:06.173Z,47.75
2023-01-29T09:14:09.958Z,47.96
2023-01-29T09:19:13.596Z,47.39
2023-01-29T09:24:16.452Z,47.53
2023-01-29T09:29:18.902Z,47.80
2023-01-29T09:34:21.178Z,47.63
2023-01-29T09:39:23.601Z,47.94
2023-01-29T09:44:28.841Z,48.62
2023-01-29T09:49:43.972Z,47.99
2023-01-29T09:54:55.950Z,48.97
2023-01-29T09:59:59.437Z,49.98
2023-01-29T10:05:11.577Z,49.79
2023-01-29T10:10:38.898Z,48.95
2023-01-29T10:16:05.023Z,49.17
2023-01-29T10:21:29.046Z,49.53
2023-01-29T10:26:33.527Z,51.06
2023-01-29T10:31:40.865Z,51.08
2023-01-29T10:36:48.520Z,50.23
2023-01-29T10:42:20.279Z,49.46
2023-01-29T10:47:52.954Z,48.94
2023-01-29T10:53:29.657Z,50.18
2023-01-29T10:58:32.321Z,49.12
2023-01-29T11:03:34.827Z,48.67
2023-01-29T11:09:07.960Z,48.53
2023-01-29T11:14:21.279Z,49.14
2023-01-29T11:19:45.351Z,48.81
2023-01-29T11:25:16.583Z,48.10
2023-01-29T11:30:27.158Z,50.24
2023-01-29T11:35:30.830Z,49.73
2023-01-29T11:40:37.400Z,48.60
2023-01-29T11:45:40.691Z,49.10
2023-01-29T11:50:44.024Z,49.77
2023-01-29T11:55:50.850Z,47.51
2023-01-29T12:00:55.733Z,48.79
2023-01-29T12:06:03.383Z,49.39
2023-01-29T12:11:16.467Z,48.91
2023-01-29T12:16:27.979Z,48.03
2023-01-29T12:21:42.609Z,47.76
2023-01-29T12:26:51.097Z,48.56
2023-01-29T12:32:13.093Z,47.48
2023-01-29T12:37:24.259Z,48.69
2023-01-29T12:42:27.699Z,49.13
2023-01-29T12:47:39.025Z,48.63
2023-01-29T12:52:58.517Z,49.60
2023-01-29T12:58:04.823Z,49.96
2023-01-29T13:03:33.334Z,49.43
2023-01-29T13:08:41.606Z,49.25
2023-01-29T13:13:54.997Z,49.81
2023-01-29T13:19:01.257Z,49.32
2023-01-29T13:24:10.429Z,49.43
2023-01-29T13:29:31.181Z,49.94
2023-01-29T13:34:37.373Z,50.21
2023-01-29T13:39:50.905Z,51.10
2023-01-29T13:44:57.448Z,50.85
2023-01-29T13:50:11.374Z,52.15
2023-01-29T13:55:22.887Z,52.47
2023-01-29T14:00:34.444Z,51.82
2023-01-29T14:05:55.076Z,51.33
2023-01-29T14:11:16.081Z,51.35
2023-01-29T14:16:19.604Z,50.41
2023-01-29T14:21:32.531Z,51.93
2023-01-29T14:26:46.064Z,52.07
2023-01-29T14:32:13.650Z,52.17
2023-01-29T14:37:16.122Z,52.55
2023-01-29T14:42:24.723Z,52.81
2023-01-29T14:47:33.120Z,51.93
2023-01-29T14:52:44.503Z,52.91
2023-01-29T14:57:49.014Z,51.73
2023-01-29T15:03:03.019Z,52.26
2023-01-29T15:08:16.973Z,52.11
2023-01-29T15:13:56.280Z,52.62
2023-01-29T15:19:13.788Z,52.78
2023-01-29T15:24:16.379Z,53.08
2023-01-29T15:29:26.025Z,53.25
2023-01-29T15:34:28.699Z,53.54
2023-01-29T15:39:32.015Z,53.72
2023-01-29T15:44:35.185Z,54.52
2023-01-29T15:49:39.873Z,55.13
2023-01-29T15:54:42.369Z,54.69
2023-01-29T15:59:46.035Z,55.71
2023-01-29T16:04:48.521Z,56.06
2023-01-29T16:09:53.222Z,55.10
2023-01-29T16:14:56.312Z,55.67
2023-01-29T16:20:01.787Z,56.01
2023-01-29T16:25:11.678Z,54.85
2023-01-29T16:30:17.883Z,55.22
2023-01-29T16:35:20.899Z,55.47
2023-01-29T16:40:33.986Z,55.03
2023-01-29T16:45:36.649Z,54.57
2023-01-29T16:50:53.847Z,55.71
2023-01-29T16:56:04.546Z,56.14
2023-01-29T17:01:11.651Z,55.30
2023-01-29T17:06:21.655Z,54.42
2023-01-29T17:11:30.453Z,54.21
2023-01-29T17:16:49.215Z,54.04
2023-01-29T17:21:51.798Z,53.99
2023-01-29T17:26:54.749Z,54.80
2023-01-29T17:32:00.430Z,54.76
2023-01-29T17:37:03.144Z,55.84
2023-01-29T17:42:05.716Z,56.31
2023-01-29T17:47:14.157Z,56.99
2023-01-29T17:52:16.942Z,57.35
2023-01-29T17:57:19.504Z,56.81
2023-01-29T18:02:29.018Z,57.61
2023-01-29T18:07:32.661Z,57.06
2023-01-29T18:12:35.073Z,56.77
2023-01-29T18:17:38.613Z,57.66
2023-01-29T18:22:41.046Z,58.76
2023-01-29T18:27:43.610Z,58.19
2023-01-29T18:32:47.750Z,58.58
2023-01-29T18:37:51.575Z,59.03
2023-01-29T18:42:54.130Z,59.04
2023-01-29T18:47:56.975Z,58.67
2023-01-29T18:52:59.991Z,58.30
2023-01-29T18:58:26.957Z,56.43
2023-01-29T19:03:25.667Z,55.02
2023-01-29T19:08:28.735Z,56.18
2023-01-29T19:13:33.025Z,56.69
2023-01-29T19:18:35.673Z,59.05
2023-01-29T19:23:38.373Z,57.95
2023-01-29T19:28:42.124Z,57.61
2023-01-29T19:33:44.520Z,58.69
2023-01-29T19:38:47.120Z,58.11
2023-01-29T19:43:50.089Z,57.59
2023-01-29T19:48:56.683Z,58.12
2023-01-29T19:53:59.163Z,59.03
2023-01-29T19:59:01.852Z,55.77
2023-01-29T20:04:04.918Z,55.57
2023-01-29T20:09:07.702Z,55.77
2023-01-29T20:14:11.421Z,55.38
2023-01-29T20:19:15.883Z,56.03
2023-01-29T20:24:18.250Z,54.75
2023-01-29T20:29:20.716Z,55.45
2023-01-29T20:34:24.259Z,55.90
2023-01-29T20:39:27.958Z,58.14
2023-01-29T20:44:31.034Z,58.09
2023-01-29T20:49:34.169Z,58.39
2023-01-29T20:54:37.440Z,58.23
2023-01-29T20:59:39.831Z,59.38
2023-01-29T21:04:44.316Z,58.02
2023-01-29T21:09:47.471Z,57.93
2023-01-29T21:14:51.875Z,56.51
2023-01-29T21:19:54.691Z,55.58
2023-01-29T21:24:57.706Z,55.53
2023-01-29T21:30:01.793Z,56.49
2023-01-29T21:35:07.392Z,56.54
2023-01-29T21:40:10.792Z,57.28
2023-01-29T21:45:13.853Z,58.26
2023-01-29T21:50:17.305Z,57.68
2023-01-29T21:55:20.513Z,59.36
2023-01-29T22:00:22.867Z,58.69
2023-01-29T22:05:26.708Z,57.46
2023-01-29T22:10:29.176Z,56.00
2023-01-29T22:15:32.719Z,55.63
2023-01-29T22:20:37.216Z,55.00
2023-01-29T22:25:40.025Z,55.66
2023-01-29T22:30:44.168Z,55.57
2023-01-29T22:35:46.729Z,55.44
2023-01-29T22:40:50.741Z,55.35
2023-01-29T22:45:53.314Z,56.15
2023-01-29T22:51:09.724Z,57.27
2023-01-29T22:56:12.418Z,57.32
2023-01-29T23:01:17.707Z,58.23
2023-01-29T23:06:21.891Z,60.36
2023-01-29T23:11:25.352Z,56.59
2023-01-29T23:16:29.217Z,55.87
2023-01-29T23:21:31.736Z,56.13
2023-01-29T23:26:52.673Z,55.32
2023-01-29T23:31:55.937Z,57.62
2023-01-29T23:36:59.165Z,58.65
2023-01-29T23:42:02.544Z,58.07
2023-01-29T23:47:05.596Z,55.91
2023-01-29T23:52:09.102Z,57.82
2023-01-29T23:57:11.482Z,57.63
